PAA811 NZAA-YSSY
Flight info
| Callsign | PAA811 |
|---|---|
| Flight time | 3h 0m |
| Altitude | 38000 |
| Route | MADEP N774 OLREL/N0480F340 DCT POVIT DCT SAKBI DCT 35S158E DCT AKALU N774 MARLN |
| Aircraft | B742/H-SDFHIRWXY/L |
Departure
| Time | 2026-04-21 15:41 |
|---|---|
| Airport | Auckland International Airport (NZAA) |
Arrival
| Time | 2026-04-21 18:41 |
|---|---|
| Airport | Sydney Kingsford Smith International Airport (YSSY) |
| Time | Latitude | Longitude | Altitude | Speed | Heading |
|---|---|---|---|---|---|
| 2026-04-21 14:53 | -37.00569 | 174.77606 | 37 ft | 0 kts | 342° |
| 2026-04-21 15:25 | -37.00575 | 174.77609 | 37 ft | 3 kts | 341° |
| 2026-04-21 15:25 | -37.00590 | 174.77615 | 37 ft | 2 kts | 339° |
| 2026-04-21 15:26 | -37.00603 | 174.77622 | 37 ft | 2 kts | 340° |
| 2026-04-21 15:26 | -37.00618 | 174.77629 | 37 ft | 2 kts | 340° |
| 2026-04-21 15:26 | -37.00632 | 174.77635 | 37 ft | 2 kts | 340° |
| 2026-04-21 15:26 | -37.00646 | 174.77641 | 37 ft | 2 kts | 340° |
| 2026-04-21 15:27 | -37.00660 | 174.77647 | 36 ft | 1 kts | 340° |
| 2026-04-21 15:27 | -37.00671 | 174.77647 | 36 ft | 1 kts | 32° |
| 2026-04-21 15:27 | -37.00677 | 174.77637 | 36 ft | 1 kts | 70° |
| 2026-04-21 15:27 | -37.00677 | 174.77635 | 36 ft | 0 kts | 71° |
| 2026-04-21 15:32 | -37.00674 | 174.77649 | 36 ft | 3 kts | 70° |
| 2026-04-21 15:32 | -37.00658 | 174.77701 | 37 ft | 9 kts | 69° |
| 2026-04-21 15:33 | -37.00634 | 174.77783 | 37 ft | 9 kts | 69° |
| 2026-04-21 15:33 | -37.00611 | 174.77859 | 38 ft | 8 kts | 68° |
| 2026-04-21 15:33 | -37.00596 | 174.77927 | 38 ft | 8 kts | 82° |
| 2026-04-21 15:33 | -37.00612 | 174.78003 | 38 ft | 9 kts | 131° |
| 2026-04-21 15:34 | -37.00684 | 174.78030 | 36 ft | 13 kts | 186° |
| 2026-04-21 15:34 | -37.00782 | 174.78011 | 34 ft | 14 kts | 173° |
| 2026-04-21 15:34 | -37.00882 | 174.78049 | 31 ft | 15 kts | 160° |
| 2026-04-21 15:34 | -37.00988 | 174.78099 | 28 ft | 16 kts | 157° |
| 2026-04-21 15:35 | -37.01031 | 174.78194 | 27 ft | 12 kts | 73° |
| 2026-04-21 15:35 | -37.01001 | 174.78294 | 27 ft | 11 kts | 77° |
| 2026-04-21 15:35 | -37.00984 | 174.78387 | 27 ft | 10 kts | 76° |
| 2026-04-21 15:35 | -37.00961 | 174.78490 | 27 ft | 14 kts | 71° |
| 2026-04-21 15:36 | -37.00926 | 174.78618 | 28 ft | 16 kts | 71° |
| 2026-04-21 15:36 | -37.00887 | 174.78760 | 29 ft | 18 kts | 71° |
| 2026-04-21 15:36 | -37.00843 | 174.78915 | 31 ft | 19 kts | 71° |
| 2026-04-21 15:36 | -37.00800 | 174.79071 | 34 ft | 18 kts | 71° |
| 2026-04-21 15:37 | -37.00757 | 174.79221 | 32 ft | 18 kts | 71° |
| 2026-04-21 15:37 | -37.00716 | 174.79372 | 33 ft | 17 kts | 71° |
| 2026-04-21 15:37 | -37.00679 | 174.79509 | 33 ft | 16 kts | 71° |
| 2026-04-21 15:37 | -37.00646 | 174.79631 | 36 ft | 13 kts | 71° |
| 2026-04-21 15:38 | -37.00615 | 174.79739 | 38 ft | 15 kts | 70° |
| 2026-04-21 15:38 | -37.00575 | 174.79878 | 38 ft | 18 kts | 70° |
| 2026-04-21 15:38 | -37.00517 | 174.80041 | 39 ft | 22 kts | 70° |
| 2026-04-21 15:38 | -37.00476 | 174.80196 | 36 ft | 18 kts | 71° |
| 2026-04-21 15:39 | -37.00452 | 174.80281 | 36 ft | 8 kts | 71° |
| 2026-04-21 15:39 | -37.00475 | 174.80359 | 36 ft | 12 kts | 142° |
| 2026-04-21 15:39 | -37.00554 | 174.80437 | 35 ft | 15 kts | 133° |
| 2026-04-21 15:39 | -37.00618 | 174.80519 | 33 ft | 9 kts | 146° |
| 2026-04-21 15:40 | -37.00680 | 174.80499 | 33 ft | 12 kts | 235° |
| 2026-04-21 15:40 | -37.00700 | 174.80443 | 34 ft | 0 kts | 251° |
| 2026-04-21 15:40 | -37.00701 | 174.80441 | 34 ft | 0 kts | 251° |
| 2026-04-21 15:40 | -37.00737 | 174.80312 | 36 ft | 47 kts | 250° |
| 2026-04-21 15:41 | -37.00925 | 174.79633 | 33 ft | 117 kts | 250° |
| 2026-04-21 15:41 | -37.01260 | 174.78404 | 51 ft | 175 kts | 250° |
| 2026-04-21 15:41 | -37.01624 | 174.76930 | 719 ft | 177 kts | 251° |
| 2026-04-21 15:41 | -37.01943 | 174.75433 | 1411 ft | 184 kts | 249° |
| 2026-04-21 15:42 | -37.02290 | 174.73856 | 1650 ft | 199 kts | 249° |
| 2026-04-21 15:42 | -37.02713 | 174.72043 | 1723 ft | 223 kts | 248° |
| 2026-04-21 15:42 | -37.03136 | 174.70110 | 2002 ft | 242 kts | 250° |
| 2026-04-21 15:42 | -37.03572 | 174.68013 | 2279 ft | 262 kts | 250° |
| 2026-04-21 15:43 | -37.04044 | 174.65744 | 2896 ft | 269 kts | 250° |
| 2026-04-21 15:43 | -37.04522 | 174.63417 | 3609 ft | 273 kts | 250° |
| 2026-04-21 15:43 | -37.04994 | 174.61148 | 4340 ft | 275 kts | 250° |
| 2026-04-21 15:43 | -37.05496 | 174.58838 | 5069 ft | 277 kts | 250° |
| 2026-04-21 15:44 | -37.06026 | 174.56499 | 5793 ft | 280 kts | 250° |
| 2026-04-21 15:44 | -37.06583 | 174.54129 | 6469 ft | 283 kts | 250° |
| 2026-04-21 15:44 | -37.07174 | 174.51685 | 7216 ft | 285 kts | 250° |
| 2026-04-21 15:44 | -37.07700 | 174.49283 | 7938 ft | 287 kts | 259° |
| 2026-04-21 15:45 | -37.07502 | 174.46800 | 8587 ft | 293 kts | 290° |
| 2026-04-21 15:45 | -37.06390 | 174.44603 | 9286 ft | 295 kts | 308° |
| 2026-04-21 15:45 | -37.05132 | 174.42539 | 9928 ft | 296 kts | 298° |
| 2026-04-21 15:45 | -37.04236 | 174.40158 | 10470 ft | 300 kts | 286° |
| 2026-04-21 15:46 | -37.03636 | 174.37527 | 10899 ft | 310 kts | 281° |
| 2026-04-21 15:46 | -37.03157 | 174.34776 | 11344 ft | 321 kts | 279° |
| 2026-04-21 15:46 | -37.02697 | 174.31938 | 11742 ft | 333 kts | 279° |
| 2026-04-21 15:46 | -37.02223 | 174.29016 | 12149 ft | 346 kts | 280° |
| 2026-04-21 15:47 | -37.01727 | 174.25996 | 12542 ft | 358 kts | 280° |
| 2026-04-21 15:47 | -37.01211 | 174.22878 | 13018 ft | 369 kts | 280° |
| 2026-04-21 15:47 | -37.00687 | 174.19724 | 13763 ft | 370 kts | 280° |
| 2026-04-21 15:47 | -37.00157 | 174.16548 | 14467 ft | 373 kts | 280° |
| 2026-04-21 15:48 | -36.99610 | 174.13275 | 15115 ft | 376 kts | 280° |
| 2026-04-21 15:48 | -36.99041 | 174.09866 | 15804 ft | 380 kts | 280° |
| 2026-04-21 15:48 | -36.98491 | 174.06584 | 16468 ft | 383 kts | 280° |
| 2026-04-21 15:48 | -36.97942 | 174.03308 | 17039 ft | 388 kts | 280° |
| 2026-04-21 15:49 | -36.97378 | 173.99942 | 17586 ft | 393 kts | 280° |
| 2026-04-21 15:49 | -36.96810 | 173.96553 | 18202 ft | 396 kts | 280° |
| 2026-04-21 15:49 | -36.96221 | 173.93054 | 18885 ft | 398 kts | 280° |
| 2026-04-21 15:49 | -36.95625 | 173.89529 | 19536 ft | 401 kts | 280° |
| 2026-04-21 15:50 | -36.95014 | 173.85916 | 20179 ft | 404 kts | 280° |
| 2026-04-21 15:50 | -36.94392 | 173.82236 | 20799 ft | 407 kts | 280° |
| 2026-04-21 15:50 | -36.93765 | 173.78532 | 21419 ft | 411 kts | 280° |
| 2026-04-21 15:50 | -36.93132 | 173.74809 | 21979 ft | 415 kts | 280° |
| 2026-04-21 15:51 | -36.92496 | 173.71077 | 22560 ft | 418 kts | 280° |
| 2026-04-21 15:51 | -36.91876 | 173.67456 | 23135 ft | 421 kts | 280° |
| 2026-04-21 15:51 | -36.91238 | 173.63731 | 23638 ft | 425 kts | 280° |
| 2026-04-21 15:51 | -36.90590 | 173.59940 | 24169 ft | 429 kts | 280° |
| 2026-04-21 15:52 | -36.89938 | 173.56131 | 24710 ft | 433 kts | 280° |
| 2026-04-21 15:52 | -36.89273 | 173.52260 | 25216 ft | 437 kts | 280° |
| 2026-04-21 15:52 | -36.88838 | 173.49736 | 25544 ft | 440 kts | 280° |
| 2026-04-21 15:52 | -36.87957 | 173.44627 | 26210 ft | 444 kts | 280° |
| 2026-04-21 15:53 | -36.87295 | 173.40799 | 26649 ft | 448 kts | 280° |
| 2026-04-21 15:53 | -36.86637 | 173.37004 | 27122 ft | 451 kts | 281° |
| 2026-04-21 15:53 | -36.85952 | 173.33058 | 27591 ft | 455 kts | 281° |
| 2026-04-21 15:53 | -36.85265 | 173.29112 | 28062 ft | 457 kts | 281° |
| 2026-04-21 15:54 | -36.84567 | 173.25111 | 28500 ft | 460 kts | 281° |
| 2026-04-21 15:54 | -36.83869 | 173.21118 | 28927 ft | 463 kts | 281° |
| 2026-04-21 15:54 | -36.83180 | 173.17181 | 29330 ft | 467 kts | 282° |
| 2026-04-21 15:54 | -36.82486 | 173.13231 | 29752 ft | 469 kts | 282° |
| 2026-04-21 15:55 | -36.81774 | 173.09178 | 30156 ft | 472 kts | 282° |
| 2026-04-21 15:55 | -36.81058 | 173.05113 | 30520 ft | 475 kts | 282° |
| 2026-04-21 15:55 | -36.80345 | 173.01079 | 30864 ft | 479 kts | 282° |
| 2026-04-21 15:55 | -36.79623 | 172.97000 | 31201 ft | 482 kts | 282° |
| 2026-04-21 15:56 | -36.78897 | 172.92909 | 31561 ft | 483 kts | 282° |
| 2026-04-21 15:56 | -36.78162 | 172.88774 | 32005 ft | 482 kts | 282° |
| 2026-04-21 15:56 | -36.77434 | 172.84689 | 32371 ft | 483 kts | 282° |
| 2026-04-21 15:56 | -36.76700 | 172.80577 | 32708 ft | 484 kts | 282° |
| 2026-04-21 15:57 | -36.75966 | 172.76476 | 33004 ft | 486 kts | 282° |
| 2026-04-21 15:57 | -36.75220 | 172.72314 | 33288 ft | 487 kts | 282° |
| 2026-04-21 15:57 | -36.74489 | 172.68237 | 33604 ft | 486 kts | 282° |
| 2026-04-21 15:57 | -36.73747 | 172.64113 | 33887 ft | 485 kts | 282° |
| 2026-04-21 15:58 | -36.73003 | 172.59990 | 34149 ft | 487 kts | 281° |
| 2026-04-21 15:58 | -36.72244 | 172.55792 | 34283 ft | 491 kts | 281° |
| 2026-04-21 15:58 | -36.71498 | 172.51675 | 34468 ft | 493 kts | 281° |
| 2026-04-21 15:58 | -36.70739 | 172.47488 | 34625 ft | 496 kts | 281° |
| 2026-04-21 15:59 | -36.69975 | 172.43285 | 34860 ft | 496 kts | 281° |
| 2026-04-21 15:59 | -36.69215 | 172.39110 | 35080 ft | 495 kts | 282° |
| 2026-04-21 15:59 | -36.68460 | 172.34975 | 35299 ft | 488 kts | 282° |
| 2026-04-21 15:59 | -36.67705 | 172.30849 | 35622 ft | 481 kts | 282° |
| 2026-04-21 16:00 | -36.66952 | 172.26743 | 35960 ft | 477 kts | 283° |
| 2026-04-21 16:00 | -36.66211 | 172.22705 | 36301 ft | 474 kts | 283° |
| 2026-04-21 16:00 | -36.65472 | 172.18690 | 36587 ft | 470 kts | 283° |
| 2026-04-21 16:00 | -36.64743 | 172.14741 | 36773 ft | 471 kts | 283° |
| 2026-04-21 16:01 | -36.63998 | 172.10712 | 36892 ft | 473 kts | 283° |
| 2026-04-21 16:01 | -36.63257 | 172.06712 | 37051 ft | 473 kts | 283° |
| 2026-04-21 16:01 | -36.62522 | 172.02753 | 37252 ft | 472 kts | 283° |
| 2026-04-21 16:01 | -36.61780 | 171.98766 | 37441 ft | 471 kts | 283° |
| 2026-04-21 16:02 | -36.61043 | 171.94809 | 37611 ft | 470 kts | 283° |
| 2026-04-21 16:02 | -36.60299 | 171.90828 | 37803 ft | 469 kts | 284° |
| 2026-04-21 16:02 | -36.58811 | 171.82887 | 37915 ft | 473 kts | 284° |
| 2026-04-21 16:03 | -36.57308 | 171.74899 | 37906 ft | 471 kts | 283° |
| 2026-04-21 16:03 | -36.55816 | 171.66995 | 37905 ft | 469 kts | 283° |
| 2026-04-21 16:04 | -36.54306 | 171.59030 | 37917 ft | 471 kts | 283° |
| 2026-04-21 16:04 | -36.52790 | 171.51062 | 37937 ft | 472 kts | 283° |
| 2026-04-21 16:05 | -36.51265 | 171.43076 | 37954 ft | 471 kts | 283° |
| 2026-04-21 16:05 | -36.49734 | 171.35091 | 37960 ft | 473 kts | 283° |
| 2026-04-21 16:06 | -36.48174 | 171.26991 | 37962 ft | 473 kts | 284° |
| 2026-04-21 16:06 | -36.46614 | 171.18916 | 37966 ft | 472 kts | 284° |
| 2026-04-21 16:07 | -36.45068 | 171.10950 | 37974 ft | 473 kts | 284° |
| 2026-04-21 16:07 | -36.43512 | 171.02960 | 37981 ft | 474 kts | 284° |
| 2026-04-21 16:08 | -36.41184 | 170.91058 | 37991 ft | 473 kts | 284° |
| 2026-04-21 16:09 | -36.39627 | 170.83142 | 37988 ft | 475 kts | 284° |
| 2026-04-21 16:09 | -36.38071 | 170.75195 | 37986 ft | 473 kts | 282° |
| 2026-04-21 16:10 | -36.37241 | 170.67053 | 37992 ft | 475 kts | 274° |
| 2026-04-21 16:10 | -36.36792 | 170.58836 | 37989 ft | 476 kts | 274° |
| 2026-04-21 16:11 | -36.36320 | 170.50658 | 37991 ft | 475 kts | 274° |
| 2026-04-21 16:11 | -36.35798 | 170.42433 | 37993 ft | 476 kts | 274° |
| 2026-04-21 16:12 | -36.35347 | 170.35577 | 37987 ft | 477 kts | 274° |
| 2026-04-21 16:12 | -36.34687 | 170.25742 | 37989 ft | 476 kts | 275° |
| 2026-04-21 16:13 | -36.34128 | 170.17491 | 37982 ft | 477 kts | 275° |
| 2026-04-21 16:13 | -36.33562 | 170.09207 | 37987 ft | 478 kts | 275° |
| 2026-04-21 16:14 | -36.32994 | 170.00983 | 37988 ft | 478 kts | 275° |
| 2026-04-21 16:14 | -36.32420 | 169.92764 | 37994 ft | 478 kts | 275° |
| 2026-04-21 16:15 | -36.31837 | 169.84497 | 37989 ft | 477 kts | 275° |
| 2026-04-21 16:15 | -36.31240 | 169.76108 | 37990 ft | 478 kts | 275° |
| 2026-04-21 16:16 | -36.30632 | 169.67670 | 37993 ft | 478 kts | 275° |
| 2026-04-21 16:16 | -36.30036 | 169.59459 | 38002 ft | 478 kts | 275° |
| 2026-04-21 16:17 | -36.29433 | 169.51218 | 38002 ft | 479 kts | 274° |
| 2026-04-21 16:17 | -36.28824 | 169.42996 | 38013 ft | 479 kts | 274° |
| 2026-04-21 16:18 | -36.28207 | 169.34738 | 38009 ft | 478 kts | 275° |
| 2026-04-21 16:18 | -36.27568 | 169.26268 | 38016 ft | 478 kts | 275° |
| 2026-04-21 16:19 | -36.26940 | 169.18008 | 38021 ft | 479 kts | 275° |
| 2026-04-21 16:19 | -36.26300 | 169.09689 | 38019 ft | 480 kts | 275° |
| 2026-04-21 16:20 | -36.25664 | 169.01482 | 38016 ft | 479 kts | 275° |
| 2026-04-21 16:20 | -36.25022 | 168.93280 | 38022 ft | 481 kts | 275° |
| 2026-04-21 16:21 | -36.24369 | 168.85007 | 38007 ft | 481 kts | 275° |
| 2026-04-21 16:21 | -36.23716 | 168.76814 | 37989 ft | 477 kts | 275° |
| 2026-04-21 16:22 | -36.23057 | 168.68610 | 38008 ft | 480 kts | 275° |
| 2026-04-21 16:22 | -36.22391 | 168.60399 | 37999 ft | 479 kts | 275° |
| 2026-04-21 16:23 | -36.21722 | 168.52203 | 38005 ft | 477 kts | 275° |
| 2026-04-21 16:23 | -36.21053 | 168.44080 | 37998 ft | 478 kts | 275° |
| 2026-04-21 16:24 | -36.20367 | 168.35840 | 37998 ft | 477 kts | 275° |
| 2026-04-21 16:24 | -36.19671 | 168.27536 | 38007 ft | 478 kts | 275° |
| 2026-04-21 16:25 | -36.18968 | 168.19222 | 38010 ft | 479 kts | 275° |
| 2026-04-21 16:25 | -36.18259 | 168.10908 | 38002 ft | 478 kts | 275° |
| 2026-04-21 16:26 | -36.17553 | 168.02689 | 38005 ft | 479 kts | 275° |
| 2026-04-21 16:26 | -36.16842 | 167.94484 | 37998 ft | 479 kts | 275° |
| 2026-04-21 16:27 | -36.16122 | 167.86241 | 37999 ft | 478 kts | 275° |
| 2026-04-21 16:27 | -36.15401 | 167.78049 | 37996 ft | 479 kts | 275° |
| 2026-04-21 16:28 | -36.14673 | 167.69859 | 38004 ft | 478 kts | 275° |
| 2026-04-21 16:28 | -36.13942 | 167.61681 | 38000 ft | 478 kts | 275° |
| 2026-04-21 16:29 | -36.13327 | 167.54854 | 38005 ft | 479 kts | 275° |
| 2026-04-21 16:29 | -36.12454 | 167.45242 | 38007 ft | 479 kts | 275° |
| 2026-04-21 16:30 | -36.11694 | 167.36937 | 38005 ft | 480 kts | 275° |
| 2026-04-21 16:30 | -36.10923 | 167.28586 | 38008 ft | 479 kts | 276° |
| 2026-04-21 16:31 | -36.10147 | 167.20241 | 38009 ft | 479 kts | 275° |
| 2026-04-21 16:31 | -36.09362 | 167.11862 | 38011 ft | 479 kts | 275° |
| 2026-04-21 16:32 | -36.08582 | 167.03597 | 38012 ft | 479 kts | 275° |
| 2026-04-21 16:32 | -36.07798 | 166.95351 | 38014 ft | 481 kts | 275° |
| 2026-04-21 16:33 | -36.07003 | 166.87045 | 38009 ft | 481 kts | 275° |
| 2026-04-21 16:33 | -36.06206 | 166.78795 | 38021 ft | 480 kts | 275° |
| 2026-04-21 16:34 | -36.05401 | 166.70514 | 38020 ft | 481 kts | 275° |
| 2026-04-21 16:34 | -36.04596 | 166.62311 | 38007 ft | 479 kts | 275° |
| 2026-04-21 16:35 | -36.03795 | 166.54192 | 38007 ft | 479 kts | 275° |
| 2026-04-21 16:35 | -36.02984 | 166.46019 | 38009 ft | 480 kts | 275° |
| 2026-04-21 16:36 | -36.02164 | 166.37834 | 38008 ft | 480 kts | 275° |
| 2026-04-21 16:36 | -36.01326 | 166.29509 | 38007 ft | 482 kts | 275° |
| 2026-04-21 16:37 | -36.00478 | 166.21137 | 38004 ft | 481 kts | 275° |
| 2026-04-21 16:37 | -35.99619 | 166.12720 | 38010 ft | 482 kts | 275° |
| 2026-04-21 16:38 | -35.98774 | 166.04504 | 38010 ft | 482 kts | 275° |
| 2026-04-21 16:38 | -35.97918 | 165.96251 | 38022 ft | 480 kts | 275° |
| 2026-04-21 16:39 | -35.97068 | 165.88097 | 38025 ft | 484 kts | 275° |
| 2026-04-21 16:39 | -35.96207 | 165.79895 | 38036 ft | 483 kts | 275° |
| 2026-04-21 16:40 | -35.95343 | 165.71721 | 38026 ft | 482 kts | 275° |
| 2026-04-21 16:40 | -35.94472 | 165.63527 | 38020 ft | 480 kts | 275° |
| 2026-04-21 16:41 | -35.93738 | 165.56670 | 38018 ft | 480 kts | 275° |
| 2026-04-21 16:41 | -35.92715 | 165.47168 | 38010 ft | 479 kts | 275° |
| 2026-04-21 16:42 | -35.91827 | 165.38989 | 38011 ft | 480 kts | 275° |
| 2026-04-21 16:42 | -35.90923 | 165.30719 | 38011 ft | 481 kts | 275° |
| 2026-04-21 16:43 | -35.90008 | 165.22398 | 38015 ft | 480 kts | 275° |
| 2026-04-21 16:43 | -35.89086 | 165.14076 | 38016 ft | 480 kts | 275° |
| 2026-04-21 16:44 | -35.88171 | 165.05849 | 38022 ft | 481 kts | 275° |
| 2026-04-21 16:44 | -35.87252 | 164.97641 | 38005 ft | 480 kts | 275° |
| 2026-04-21 16:45 | -35.86332 | 164.89475 | 38014 ft | 480 kts | 274° |
| 2026-04-21 16:45 | -35.85408 | 164.81323 | 38011 ft | 482 kts | 275° |
| 2026-04-21 16:46 | -35.84478 | 164.73180 | 38009 ft | 480 kts | 275° |
| 2026-04-21 16:46 | -35.83550 | 164.65105 | 38000 ft | 480 kts | 274° |
| 2026-04-21 16:47 | -35.82608 | 164.56952 | 38012 ft | 483 kts | 274° |
| 2026-04-21 16:47 | -35.81654 | 164.48756 | 38010 ft | 480 kts | 275° |
| 2026-04-21 16:48 | -35.80708 | 164.40668 | 38013 ft | 480 kts | 275° |
| 2026-04-21 16:48 | -35.79745 | 164.32477 | 38015 ft | 482 kts | 275° |
| 2026-04-21 16:49 | -35.78744 | 164.24033 | 38025 ft | 481 kts | 275° |
| 2026-04-21 16:49 | -35.77760 | 164.15771 | 38029 ft | 481 kts | 275° |
| 2026-04-21 16:50 | -35.76785 | 164.07642 | 38025 ft | 481 kts | 275° |
| 2026-04-21 16:50 | -35.75801 | 163.99472 | 38027 ft | 482 kts | 275° |
| 2026-04-21 16:51 | -35.74810 | 163.91298 | 38029 ft | 481 kts | 275° |
| 2026-04-21 16:51 | -35.73816 | 163.83150 | 38022 ft | 480 kts | 275° |
| 2026-04-21 16:52 | -35.72810 | 163.74940 | 38026 ft | 482 kts | 275° |
| 2026-04-21 16:52 | -35.71804 | 163.66786 | 38022 ft | 480 kts | 275° |
| 2026-04-21 16:53 | -35.70797 | 163.58675 | 38023 ft | 481 kts | 275° |
| 2026-04-21 16:53 | -35.69778 | 163.50508 | 38030 ft | 481 kts | 275° |
| 2026-04-21 16:54 | -35.68761 | 163.42406 | 38028 ft | 480 kts | 275° |
| 2026-04-21 16:54 | -35.67742 | 163.34332 | 38027 ft | 480 kts | 276° |
| 2026-04-21 16:55 | -35.66690 | 163.26038 | 38029 ft | 481 kts | 276° |
| 2026-04-21 16:55 | -35.65642 | 163.17806 | 38029 ft | 478 kts | 275° |
| 2026-04-21 16:55 | -35.65408 | 163.13647 | 38019 ft | 473 kts | 264° |
| 2026-04-21 16:56 | -35.65890 | 163.09648 | 38028 ft | 470 kts | 252° |
| 2026-04-21 16:56 | -35.67083 | 163.05881 | 38028 ft | 467 kts | 239° |
| 2026-04-21 16:56 | -35.68915 | 163.02568 | 38024 ft | 464 kts | 227° |
| 2026-04-21 16:56 | -35.71233 | 162.99908 | 38030 ft | 461 kts | 215° |
| 2026-04-21 16:57 | -35.74027 | 162.97902 | 38030 ft | 461 kts | 204° |
| 2026-04-21 16:57 | -35.80084 | 162.95366 | 38027 ft | 463 kts | 195° |
| 2026-04-21 16:58 | -35.86308 | 162.93394 | 38027 ft | 460 kts | 194° |
| 2026-04-21 16:58 | -35.92519 | 162.91470 | 38030 ft | 461 kts | 194° |
| 2026-04-21 16:59 | -35.98725 | 162.89516 | 38034 ft | 462 kts | 194° |
| 2026-04-21 16:59 | -36.04923 | 162.87544 | 38031 ft | 459 kts | 194° |
| 2026-04-21 17:00 | -36.11123 | 162.85564 | 38032 ft | 461 kts | 194° |
| 2026-04-21 17:00 | -36.16430 | 162.83865 | 38036 ft | 460 kts | 194° |
| 2026-04-21 17:01 | -36.23701 | 162.81534 | 38039 ft | 461 kts | 194° |
| 2026-04-21 17:01 | -36.30016 | 162.79507 | 38038 ft | 463 kts | 194° |
| 2026-04-21 17:02 | -36.36205 | 162.77516 | 38039 ft | 461 kts | 194° |
| 2026-04-21 17:02 | -36.42436 | 162.75508 | 38044 ft | 462 kts | 194° |
| 2026-04-21 17:03 | -36.48670 | 162.73497 | 38047 ft | 463 kts | 194° |
| 2026-04-21 17:03 | -36.54846 | 162.71501 | 38046 ft | 461 kts | 194° |
| 2026-04-21 17:04 | -36.61077 | 162.69484 | 38045 ft | 461 kts | 194° |
| 2026-04-21 17:04 | -36.67254 | 162.67480 | 38049 ft | 460 kts | 194° |
| 2026-04-21 17:05 | -36.73424 | 162.65356 | 38046 ft | 460 kts | 200° |
| 2026-04-21 17:05 | -36.76297 | 162.63559 | 38055 ft | 462 kts | 212° |
| 2026-04-21 17:05 | -36.78775 | 162.61037 | 38052 ft | 466 kts | 224° |
| 2026-04-21 17:05 | -36.80780 | 162.57869 | 38062 ft | 470 kts | 236° |
| 2026-04-21 17:06 | -36.82210 | 162.54193 | 38063 ft | 475 kts | 248° |
| 2026-04-21 17:06 | -36.82989 | 162.50157 | 38057 ft | 478 kts | 260° |
| 2026-04-21 17:06 | -36.83060 | 162.45987 | 38060 ft | 481 kts | 272° |
| 2026-04-21 17:06 | -36.82414 | 162.41844 | 38062 ft | 486 kts | 284° |
| 2026-04-21 17:07 | -36.81611 | 162.39241 | 38064 ft | 489 kts | 292° |
| 2026-04-21 17:07 | -36.79080 | 162.34398 | 38066 ft | 495 kts | 309° |
| 2026-04-21 17:07 | -36.76475 | 162.31326 | 38073 ft | 498 kts | 319° |
| 2026-04-21 17:08 | -36.70768 | 162.25986 | 38061 ft | 499 kts | 322° |
| 2026-04-21 17:08 | -36.65049 | 162.20641 | 38062 ft | 496 kts | 315° |
| 2026-04-21 17:09 | -36.58975 | 162.10300 | 38061 ft | 492 kts | 295° |
| 2026-04-21 17:09 | -36.56021 | 162.02666 | 38058 ft | 489 kts | 292° |
| 2026-04-21 17:10 | -36.53207 | 161.94961 | 38049 ft | 488 kts | 292° |
| 2026-04-21 17:10 | -36.50388 | 161.87297 | 38047 ft | 488 kts | 292° |
| 2026-04-21 17:11 | -36.47531 | 161.79617 | 38049 ft | 486 kts | 292° |
| 2026-04-21 17:11 | -36.44663 | 161.71941 | 38052 ft | 488 kts | 292° |
| 2026-04-21 17:12 | -36.41793 | 161.64273 | 38056 ft | 489 kts | 292° |
| 2026-04-21 17:12 | -36.38921 | 161.56622 | 38058 ft | 488 kts | 292° |
| 2026-04-21 17:13 | -36.36057 | 161.49016 | 38058 ft | 489 kts | 292° |
| 2026-04-21 17:13 | -36.33176 | 161.41382 | 38055 ft | 487 kts | 293° |
| 2026-04-21 17:14 | -36.30287 | 161.33749 | 38053 ft | 485 kts | 293° |
| 2026-04-21 17:14 | -36.27363 | 161.26038 | 38055 ft | 488 kts | 293° |
| 2026-04-21 17:15 | -36.24432 | 161.18330 | 38054 ft | 488 kts | 293° |
| 2026-04-21 17:15 | -36.21490 | 161.10609 | 38057 ft | 487 kts | 294° |
| 2026-04-21 17:16 | -36.18568 | 161.02960 | 38054 ft | 488 kts | 294° |
| 2026-04-21 17:16 | -36.15644 | 160.95328 | 38049 ft | 487 kts | 294° |
| 2026-04-21 17:17 | -36.12729 | 160.87735 | 38051 ft | 487 kts | 294° |
| 2026-04-21 17:17 | -36.09804 | 160.80133 | 38047 ft | 488 kts | 294° |
| 2026-04-21 17:18 | -36.06871 | 160.72530 | 38058 ft | 487 kts | 294° |
| 2026-04-21 17:18 | -36.03925 | 160.64911 | 38052 ft | 489 kts | 293° |
| 2026-04-21 17:19 | -36.00967 | 160.57280 | 38055 ft | 488 kts | 293° |
| 2026-04-21 17:19 | -35.98025 | 160.49707 | 38050 ft | 488 kts | 293° |
| 2026-04-21 17:20 | -35.95089 | 160.42165 | 38060 ft | 490 kts | 293° |
| 2026-04-21 17:20 | -35.92137 | 160.34605 | 38053 ft | 489 kts | 294° |
| 2026-04-21 17:21 | -35.89089 | 160.26816 | 38057 ft | 490 kts | 294° |
| 2026-04-21 17:21 | -35.85999 | 160.18938 | 38101 ft | 490 kts | 294° |
| 2026-04-21 17:22 | -35.82939 | 160.11156 | 38057 ft | 485 kts | 294° |
| 2026-04-21 17:22 | -35.79945 | 160.03558 | 38023 ft | 487 kts | 294° |
| 2026-04-21 17:23 | -35.76951 | 159.95975 | 38076 ft | 490 kts | 294° |
| 2026-04-21 17:23 | -35.73940 | 159.88373 | 38070 ft | 486 kts | 294° |
| 2026-04-21 17:24 | -35.70978 | 159.80913 | 38068 ft | 490 kts | 294° |
| 2026-04-21 17:24 | -35.67961 | 159.73328 | 38071 ft | 489 kts | 294° |
| 2026-04-21 17:25 | -35.64967 | 159.65822 | 38076 ft | 487 kts | 293° |
| 2026-04-21 17:25 | -35.61954 | 159.58281 | 38077 ft | 488 kts | 293° |
| 2026-04-21 17:26 | -35.58927 | 159.50725 | 38083 ft | 488 kts | 293° |
| 2026-04-21 17:26 | -35.55914 | 159.43222 | 38084 ft | 488 kts | 293° |
| 2026-04-21 17:27 | -35.52877 | 159.35675 | 38083 ft | 489 kts | 293° |
| 2026-04-21 17:27 | -35.49732 | 159.27879 | 38086 ft | 488 kts | 294° |
| 2026-04-21 17:28 | -35.46669 | 159.20303 | 38086 ft | 490 kts | 294° |
| 2026-04-21 17:28 | -35.43520 | 159.12535 | 38095 ft | 487 kts | 294° |
| 2026-04-21 17:29 | -35.40469 | 159.05025 | 38094 ft | 487 kts | 294° |
| 2026-04-21 17:29 | -35.37402 | 158.97490 | 38096 ft | 489 kts | 293° |
| 2026-04-21 17:30 | -35.34356 | 158.90028 | 38101 ft | 487 kts | 293° |
| 2026-04-21 17:30 | -35.31292 | 158.82535 | 38103 ft | 489 kts | 293° |
| 2026-04-21 17:31 | -35.28218 | 158.75038 | 38103 ft | 489 kts | 293° |
| 2026-04-21 17:31 | -35.25124 | 158.67513 | 38113 ft | 488 kts | 293° |
| 2026-04-21 17:32 | -35.22026 | 158.59976 | 38108 ft | 488 kts | 293° |
| 2026-04-21 17:32 | -35.19005 | 158.52653 | 38114 ft | 486 kts | 293° |
| 2026-04-21 17:33 | -35.15955 | 158.45281 | 38110 ft | 486 kts | 293° |
| 2026-04-21 17:33 | -35.12886 | 158.37877 | 38109 ft | 486 kts | 293° |
| 2026-04-21 17:34 | -35.09786 | 158.30415 | 38116 ft | 487 kts | 293° |
| 2026-04-21 17:34 | -35.06627 | 158.22830 | 38116 ft | 487 kts | 293° |
| 2026-04-21 17:35 | -35.03464 | 158.15256 | 38121 ft | 486 kts | 293° |
| 2026-04-21 17:35 | -35.00375 | 158.07872 | 38129 ft | 484 kts | 293° |
| 2026-04-21 17:36 | -34.97468 | 158.00426 | 38127 ft | 480 kts | 285° |
| 2026-04-21 17:36 | -34.95665 | 157.92583 | 38135 ft | 480 kts | 279° |
| 2026-04-21 17:37 | -34.94120 | 157.84688 | 38139 ft | 478 kts | 279° |
| 2026-04-21 17:37 | -34.92516 | 157.76787 | 38139 ft | 479 kts | 279° |
| 2026-04-21 17:38 | -34.90866 | 157.68907 | 38140 ft | 480 kts | 280° |
| 2026-04-21 17:38 | -34.89189 | 157.60996 | 38139 ft | 477 kts | 280° |
| 2026-04-21 17:39 | -34.87489 | 157.53006 | 38147 ft | 477 kts | 280° |
| 2026-04-21 17:39 | -34.85789 | 157.45039 | 38144 ft | 477 kts | 279° |
| 2026-04-21 17:40 | -34.84094 | 157.37128 | 38149 ft | 477 kts | 279° |
| 2026-04-21 17:40 | -34.82378 | 157.29140 | 38148 ft | 479 kts | 280° |
| 2026-04-21 17:41 | -34.80644 | 157.21101 | 38143 ft | 477 kts | 280° |
| 2026-04-21 17:41 | -34.78903 | 157.13054 | 38146 ft | 479 kts | 280° |
| 2026-04-21 17:42 | -34.77178 | 157.05107 | 38154 ft | 478 kts | 280° |
| 2026-04-21 17:42 | -34.75453 | 156.97198 | 38152 ft | 476 kts | 280° |
| 2026-04-21 17:43 | -34.73750 | 156.89404 | 38153 ft | 477 kts | 279° |
| 2026-04-21 17:43 | -34.72030 | 156.81567 | 38156 ft | 475 kts | 279° |
| 2026-04-21 17:44 | -34.70321 | 156.73798 | 38158 ft | 477 kts | 279° |
| 2026-04-21 17:44 | -34.68608 | 156.66038 | 38157 ft | 478 kts | 279° |
| 2026-04-21 17:45 | -34.66876 | 156.58221 | 38166 ft | 476 kts | 279° |
| 2026-04-21 17:45 | -34.65155 | 156.50479 | 38160 ft | 476 kts | 279° |
| 2026-04-21 17:46 | -34.63429 | 156.42738 | 38163 ft | 477 kts | 279° |
| 2026-04-21 17:46 | -34.61691 | 156.34969 | 38161 ft | 477 kts | 279° |
| 2026-04-21 17:47 | -34.59909 | 156.27037 | 38173 ft | 475 kts | 279° |
| 2026-04-21 17:47 | -34.58140 | 156.19179 | 38176 ft | 474 kts | 279° |
| 2026-04-21 17:48 | -34.56369 | 156.11346 | 38184 ft | 474 kts | 279° |
| 2026-04-21 17:48 | -34.54617 | 156.03600 | 38190 ft | 477 kts | 279° |
| 2026-04-21 17:49 | -34.52835 | 155.95776 | 38173 ft | 473 kts | 279° |
| 2026-04-21 17:49 | -34.51070 | 155.88037 | 38191 ft | 473 kts | 279° |
| 2026-04-21 17:50 | -34.49306 | 155.80318 | 38198 ft | 476 kts | 279° |
| 2026-04-21 17:50 | -34.47509 | 155.72502 | 38201 ft | 472 kts | 279° |
| 2026-04-21 17:51 | -34.45727 | 155.64769 | 38197 ft | 472 kts | 279° |
| 2026-04-21 17:51 | -34.43943 | 155.57040 | 38204 ft | 474 kts | 278° |
| 2026-04-21 17:52 | -34.42142 | 155.49281 | 38196 ft | 468 kts | 278° |
| 2026-04-21 17:52 | -34.40377 | 155.41690 | 38208 ft | 469 kts | 278° |
| 2026-04-21 17:53 | -34.38585 | 155.33993 | 38200 ft | 471 kts | 279° |
| 2026-04-21 17:53 | -34.36729 | 155.26064 | 38200 ft | 470 kts | 279° |
| 2026-04-21 17:54 | -34.34966 | 155.18365 | 38198 ft | 465 kts | 275° |
| 2026-04-21 17:54 | -34.33993 | 155.10661 | 38204 ft | 461 kts | 270° |
| 2026-04-21 17:55 | -34.33270 | 155.02940 | 38214 ft | 460 kts | 270° |
| 2026-04-21 17:55 | -34.32516 | 154.95316 | 38208 ft | 455 kts | 270° |
| 2026-04-21 17:56 | -34.31737 | 154.87724 | 38236 ft | 461 kts | 270° |
| 2026-04-21 17:56 | -34.30932 | 154.80083 | 38198 ft | 456 kts | 270° |
| 2026-04-21 17:57 | -34.30125 | 154.72484 | 38215 ft | 458 kts | 270° |
| 2026-04-21 17:57 | -34.29309 | 154.64839 | 38226 ft | 459 kts | 270° |
| 2026-04-21 17:58 | -34.28493 | 154.57257 | 38212 ft | 457 kts | 270° |
| 2026-04-21 17:58 | -34.27674 | 154.49675 | 38213 ft | 457 kts | 270° |
| 2026-04-21 17:59 | -34.26843 | 154.42027 | 38226 ft | 459 kts | 270° |
| 2026-04-21 17:59 | -34.26010 | 154.34421 | 38235 ft | 458 kts | 271° |
| 2026-04-21 18:00 | -34.25151 | 154.26614 | 38222 ft | 457 kts | 271° |
| 2026-04-21 18:00 | -34.24295 | 154.18872 | 38229 ft | 457 kts | 271° |
| 2026-04-21 18:01 | -34.23436 | 154.11179 | 38220 ft | 454 kts | 271° |
| 2026-04-21 18:01 | -34.22574 | 154.03451 | 38228 ft | 459 kts | 271° |
| 2026-04-21 18:02 | -34.21716 | 153.95848 | 38220 ft | 455 kts | 271° |
| 2026-04-21 18:02 | -34.20848 | 153.88194 | 38230 ft | 456 kts | 271° |
| 2026-04-21 18:03 | -34.19987 | 153.80611 | 38242 ft | 459 kts | 271° |
| 2026-04-21 18:03 | -34.19109 | 153.72961 | 38265 ft | 457 kts | 271° |
| 2026-04-21 18:04 | -34.18236 | 153.65395 | 38255 ft | 457 kts | 271° |
| 2026-04-21 18:04 | -34.17351 | 153.57739 | 38250 ft | 460 kts | 271° |
| 2026-04-21 18:05 | -34.16466 | 153.50159 | 38253 ft | 457 kts | 271° |
| 2026-04-21 18:05 | -34.15577 | 153.42552 | 38246 ft | 461 kts | 271° |
| 2026-04-21 18:06 | -34.14676 | 153.34892 | 38240 ft | 463 kts | 272° |
| 2026-04-21 18:06 | -34.13725 | 153.27103 | 38232 ft | 463 kts | 272° |
| 2026-04-21 18:07 | -34.12747 | 153.19238 | 38236 ft | 463 kts | 272° |
| 2026-04-21 18:07 | -34.11753 | 153.11289 | 38241 ft | 463 kts | 272° |
| 2026-04-21 18:08 | -34.10776 | 153.03494 | 38239 ft | 463 kts | 272° |
| 2026-04-21 18:08 | -34.09806 | 152.95709 | 38238 ft | 465 kts | 272° |
| 2026-04-21 18:09 | -34.08869 | 152.87962 | 38236 ft | 461 kts | 271° |
| 2026-04-21 18:09 | -34.09277 | 152.80347 | 38245 ft | 446 kts | 247° |
| 2026-04-21 18:10 | -34.11776 | 152.73508 | 38241 ft | 444 kts | 242° |
| 2026-04-21 18:10 | -34.14147 | 152.66685 | 38244 ft | 440 kts | 243° |
| 2026-04-21 18:11 | -34.16480 | 152.59842 | 38248 ft | 443 kts | 243° |
| 2026-04-21 18:11 | -34.18812 | 152.52951 | 38244 ft | 444 kts | 246° |
| 2026-04-21 18:12 | -34.19534 | 152.49286 | 38248 ft | 452 kts | 258° |
| 2026-04-21 18:12 | -34.19556 | 152.45447 | 38249 ft | 463 kts | 270° |
| 2026-04-21 18:12 | -34.18872 | 152.41617 | 38252 ft | 476 kts | 282° |
| 2026-04-21 18:12 | -34.17522 | 152.37911 | 37883 ft | 494 kts | 293° |
| 2026-04-21 18:13 | -34.15714 | 152.34334 | 37035 ft | 499 kts | 295° |
| 2026-04-21 18:13 | -34.14015 | 152.30647 | 36174 ft | 491 kts | 290° |
| 2026-04-21 18:13 | -34.12662 | 152.26816 | 35315 ft | 484 kts | 284° |
| 2026-04-21 18:13 | -34.11608 | 152.22952 | 34467 ft | 479 kts | 280° |
| 2026-04-21 18:14 | -34.09953 | 152.15248 | 32857 ft | 472 kts | 277° |
| 2026-04-21 18:14 | -34.09208 | 152.11403 | 32068 ft | 470 kts | 277° |
| 2026-04-21 18:14 | -34.08481 | 152.07613 | 31293 ft | 469 kts | 277° |
| 2026-04-21 18:15 | -34.07752 | 152.03816 | 30517 ft | 467 kts | 277° |
| 2026-04-21 18:15 | -34.07014 | 152.00001 | 29728 ft | 466 kts | 277° |
| 2026-04-21 18:15 | -34.06280 | 151.96228 | 28941 ft | 464 kts | 277° |
| 2026-04-21 18:15 | -34.05541 | 151.92453 | 28150 ft | 463 kts | 277° |
| 2026-04-21 18:16 | -34.04810 | 151.88725 | 27367 ft | 461 kts | 277° |
| 2026-04-21 18:16 | -34.04066 | 151.84946 | 26571 ft | 460 kts | 277° |
| 2026-04-21 18:16 | -34.03341 | 151.81264 | 25794 ft | 459 kts | 277° |
| 2026-04-21 18:16 | -34.02606 | 151.77541 | 25009 ft | 458 kts | 278° |
| 2026-04-21 18:17 | -34.01862 | 151.73782 | 24209 ft | 457 kts | 278° |
| 2026-04-21 18:17 | -34.01102 | 151.69945 | 23395 ft | 455 kts | 278° |
| 2026-04-21 18:17 | -34.00348 | 151.66144 | 22582 ft | 454 kts | 278° |
| 2026-04-21 18:17 | -33.99613 | 151.62448 | 21796 ft | 453 kts | 278° |
| 2026-04-21 18:18 | -33.98873 | 151.58731 | 21007 ft | 452 kts | 279° |
| 2026-04-21 18:18 | -33.98145 | 151.55087 | 20234 ft | 451 kts | 279° |
| 2026-04-21 18:18 | -33.97410 | 151.51410 | 19460 ft | 449 kts | 279° |
| 2026-04-21 18:18 | -33.96664 | 151.47819 | 18708 ft | 449 kts | 282° |
| 2026-04-21 18:19 | -33.95483 | 151.44307 | 17923 ft | 451 kts | 295° |
| 2026-04-21 18:19 | -33.93692 | 151.41220 | 17160 ft | 453 kts | 309° |
| 2026-04-21 18:19 | -33.91384 | 151.38693 | 16424 ft | 453 kts | 322° |
| 2026-04-21 18:19 | -33.88658 | 151.36832 | 15678 ft | 451 kts | 336° |
| 2026-04-21 18:20 | -33.85643 | 151.35742 | 14920 ft | 448 kts | 349° |
| 2026-04-21 18:20 | -33.82514 | 151.35498 | 14155 ft | 443 kts | 3° |
| 2026-04-21 18:20 | -33.79530 | 151.36087 | 13415 ft | 437 kts | 17° |
| 2026-04-21 18:20 | -33.76741 | 151.37471 | 12682 ft | 430 kts | 30° |
| 2026-04-21 18:21 | -33.74335 | 151.39560 | 11916 ft | 422 kts | 44° |
| 2026-04-21 18:21 | -33.72430 | 151.42250 | 11147 ft | 414 kts | 58° |
| 2026-04-21 18:21 | -33.70791 | 151.45161 | 10340 ft | 409 kts | 52° |
| 2026-04-21 18:21 | -33.68588 | 151.47513 | 9949 ft | 398 kts | 36° |
| 2026-04-21 18:22 | -33.66073 | 151.48993 | 9631 ft | 387 kts | 20° |
| 2026-04-21 18:22 | -33.63448 | 151.49588 | 9328 ft | 378 kts | 4° |
| 2026-04-21 18:22 | -33.60730 | 151.49284 | 8998 ft | 368 kts | 347° |
| 2026-04-21 18:22 | -33.58373 | 151.48157 | 8692 ft | 359 kts | 329° |
| 2026-04-21 18:23 | -33.56436 | 151.46326 | 8394 ft | 344 kts | 311° |
| 2026-04-21 18:23 | -33.55106 | 151.44003 | 8067 ft | 331 kts | 293° |
| 2026-04-21 18:23 | -33.54469 | 151.41444 | 7755 ft | 317 kts | 274° |
| 2026-04-21 18:23 | -33.54542 | 151.38870 | 7451 ft | 303 kts | 255° |
| 2026-04-21 18:24 | -33.55218 | 151.36528 | 7140 ft | 291 kts | 243° |
| 2026-04-21 18:24 | -33.56036 | 151.34317 | 6822 ft | 284 kts | 243° |
| 2026-04-21 18:24 | -33.56842 | 151.32187 | 6495 ft | 279 kts | 243° |
| 2026-04-21 18:24 | -33.57642 | 151.30081 | 6184 ft | 277 kts | 243° |
| 2026-04-21 18:25 | -33.58438 | 151.27977 | 5863 ft | 275 kts | 243° |
| 2026-04-21 18:25 | -33.59223 | 151.25891 | 5554 ft | 274 kts | 243° |
| 2026-04-21 18:25 | -33.60004 | 151.23802 | 5232 ft | 272 kts | 243° |
| 2026-04-21 18:25 | -33.60771 | 151.21744 | 5016 ft | 269 kts | 243° |
| 2026-04-21 18:26 | -33.61525 | 151.19713 | 5011 ft | 270 kts | 243° |
| 2026-04-21 18:26 | -33.62294 | 151.17639 | 5012 ft | 272 kts | 243° |
| 2026-04-21 18:26 | -33.63059 | 151.15572 | 5009 ft | 272 kts | 243° |
| 2026-04-21 18:26 | -33.63828 | 151.13486 | 5009 ft | 271 kts | 243° |
| 2026-04-21 18:27 | -33.64589 | 151.11427 | 5009 ft | 271 kts | 243° |
| 2026-04-21 18:27 | -33.65359 | 151.09352 | 5009 ft | 271 kts | 243° |
| 2026-04-21 18:27 | -33.66129 | 151.07280 | 5010 ft | 271 kts | 243° |
| 2026-04-21 18:27 | -33.66968 | 151.05296 | 5011 ft | 267 kts | 228° |
| 2026-04-21 18:28 | -33.68433 | 151.03981 | 5022 ft | 260 kts | 196° |
| 2026-04-21 18:28 | -33.70203 | 151.03743 | 5027 ft | 256 kts | 175° |
| 2026-04-21 18:28 | -33.71980 | 151.03900 | 5018 ft | 254 kts | 173° |
| 2026-04-21 18:28 | -33.73753 | 151.04091 | 5016 ft | 253 kts | 173° |
| 2026-04-21 18:29 | -33.75525 | 151.04285 | 5014 ft | 253 kts | 173° |
| 2026-04-21 18:29 | -33.77271 | 151.04478 | 5016 ft | 254 kts | 172° |
| 2026-04-21 18:29 | -33.79033 | 151.04675 | 5021 ft | 254 kts | 172° |
| 2026-04-21 18:29 | -33.80792 | 151.04868 | 5021 ft | 253 kts | 173° |
| 2026-04-21 18:30 | -33.82572 | 151.05061 | 5005 ft | 253 kts | 173° |
| 2026-04-21 18:30 | -33.84353 | 151.05260 | 4661 ft | 259 kts | 173° |
| 2026-04-21 18:30 | -33.86133 | 151.05460 | 4301 ft | 257 kts | 173° |
| 2026-04-21 18:30 | -33.87912 | 151.05661 | 3941 ft | 256 kts | 173° |
| 2026-04-21 18:31 | -33.89681 | 151.05864 | 3588 ft | 256 kts | 173° |
| 2026-04-21 18:31 | -33.91470 | 151.06071 | 3219 ft | 255 kts | 173° |
| 2026-04-21 18:31 | -33.93224 | 151.06276 | 2871 ft | 254 kts | 173° |
| 2026-04-21 18:31 | -33.94999 | 151.06483 | 2526 ft | 252 kts | 173° |
| 2026-04-21 18:32 | -33.96678 | 151.06682 | 2748 ft | 244 kts | 173° |
| 2026-04-21 18:32 | -33.98416 | 151.06888 | 2898 ft | 247 kts | 173° |
| 2026-04-21 18:32 | -34.00124 | 151.07086 | 2933 ft | 247 kts | 173° |
| 2026-04-21 18:32 | -34.01827 | 151.07285 | 2944 ft | 246 kts | 173° |
| 2026-04-21 18:33 | -34.03548 | 151.07483 | 2952 ft | 246 kts | 173° |
| 2026-04-21 18:33 | -34.05250 | 151.07677 | 2945 ft | 246 kts | 173° |
| 2026-04-21 18:33 | -34.06949 | 151.07869 | 2942 ft | 245 kts | 173° |
| 2026-04-21 18:33 | -34.08675 | 151.08064 | 2957 ft | 247 kts | 173° |
| 2026-04-21 18:34 | -34.10388 | 151.08256 | 2959 ft | 246 kts | 173° |
| 2026-04-21 18:34 | -34.12080 | 151.08449 | 2962 ft | 246 kts | 173° |
| 2026-04-21 18:34 | -34.13775 | 151.08646 | 2962 ft | 245 kts | 173° |
| 2026-04-21 18:34 | -34.15496 | 151.08850 | 2952 ft | 244 kts | 171° |
| 2026-04-21 18:35 | -34.16584 | 151.09245 | 2952 ft | 240 kts | 150° |
| 2026-04-21 18:35 | -34.17883 | 151.11360 | 2944 ft | 223 kts | 101° |
| 2026-04-21 18:35 | -34.17789 | 151.13234 | 2950 ft | 216 kts | 84° |
| 2026-04-21 18:35 | -34.17518 | 151.15022 | 2949 ft | 214 kts | 83° |
| 2026-04-21 18:36 | -34.17240 | 151.16798 | 2962 ft | 213 kts | 83° |
| 2026-04-21 18:36 | -34.16925 | 151.18503 | 2934 ft | 202 kts | 69° |
| 2026-04-21 18:36 | -34.15955 | 151.19696 | 2939 ft | 203 kts | 26° |
| 2026-04-21 18:36 | -34.14643 | 151.20282 | 2949 ft | 198 kts | 24° |
| 2026-04-21 18:37 | -34.13412 | 151.20996 | 2948 ft | 196 kts | 32° |
| 2026-04-21 18:37 | -34.12136 | 151.21725 | 2669 ft | 205 kts | 15° |
| 2026-04-21 18:37 | -34.10699 | 151.21706 | 2303 ft | 210 kts | 354° |
| 2026-04-21 18:37 | -34.09246 | 151.21393 | 2049 ft | 208 kts | 349° |
| 2026-04-21 18:38 | -34.07864 | 151.21037 | 1966 ft | 195 kts | 349° |
| 2026-04-21 18:38 | -34.06589 | 151.20708 | 1954 ft | 175 kts | 349° |
| 2026-04-21 18:38 | -34.05435 | 151.20407 | 1825 ft | 167 kts | 349° |
| 2026-04-21 18:38 | -34.04330 | 151.20122 | 1608 ft | 161 kts | 349° |
| 2026-04-21 18:39 | -34.03229 | 151.19836 | 1392 ft | 162 kts | 349° |
| 2026-04-21 18:39 | -34.02135 | 151.19553 | 1181 ft | 157 kts | 349° |
| 2026-04-21 18:39 | -34.01059 | 151.19272 | 975 ft | 155 kts | 349° |
| 2026-04-21 18:39 | -34.00016 | 151.19000 | 756 ft | 154 kts | 349° |
| 2026-04-21 18:40 | -33.98972 | 151.18729 | 566 ft | 152 kts | 349° |
| 2026-04-21 18:40 | -33.97937 | 151.18460 | 379 ft | 152 kts | 349° |
| 2026-04-21 18:40 | -33.97240 | 151.18275 | 241 ft | 155 kts | 348° |
| 2026-04-21 18:40 | -33.95820 | 151.17909 | 34 ft | 158 kts | 346° |
| 2026-04-21 18:41 | -33.94882 | 151.17664 | 30 ft | 112 kts | 348° |
| 2026-04-21 18:41 | -33.94272 | 151.17508 | 30 ft | 66 kts | 348° |
| 2026-04-21 18:41 | -33.93834 | 151.17394 | 30 ft | 62 kts | 348° |
| 2026-04-21 18:41 | -33.93539 | 151.17313 | 30 ft | 31 kts | 346° |
| 2026-04-21 18:42 | -33.93469 | 151.17291 | 30 ft | 4 kts | 342° |
| 2026-04-21 18:42 | -33.93438 | 151.17247 | 30 ft | 11 kts | 289° |
| 2026-04-21 18:42 | -33.93442 | 151.17157 | 30 ft | 9 kts | 256° |
| 2026-04-21 18:42 | -33.93457 | 151.17123 | 30 ft | 2 kts | 231° |
| 2026-04-21 18:43 | -33.93486 | 151.17078 | 30 ft | 8 kts | 238° |
| 2026-04-21 18:43 | -33.93505 | 151.17018 | 30 ft | 7 kts | 253° |
| 2026-04-21 18:43 | -33.93517 | 151.16959 | 30 ft | 7 kts | 257° |
| 2026-04-21 18:43 | -33.93538 | 151.16919 | 30 ft | 5 kts | 210° |
| 2026-04-21 18:44 | -33.93572 | 151.16916 | 30 ft | 5 kts | 171° |
| 2026-04-21 18:44 | -33.93604 | 151.16921 | 30 ft | 4 kts | 177° |
| 2026-04-21 18:44 | -33.93624 | 151.16921 | 30 ft | 1 kts | 179° |
| 2026-04-21 18:44 | -33.93629 | 151.16921 | 30 ft | 0 kts | 178° |
| 2026-04-21 18:45 | -33.93630 | 151.16921 | 30 ft | 0 kts | 178° |